createdAt,value
2017-06-13T00:01:23.358Z,1016.8
2017-06-13T00:02:22.468Z,1016.9
2017-06-13T00:03:21.765Z,1016.9
2017-06-13T00:04:20.872Z,1016.9
2017-06-13T00:05:20.479Z,1016.9
2017-06-13T00:06:19.736Z,1016.9
2017-06-13T00:07:18.960Z,1017
2017-06-13T00:08:18.187Z,1017
2017-06-13T00:09:17.292Z,1017
2017-06-13T00:10:16.899Z,1017
2017-06-13T00:11:16.119Z,1017
2017-06-13T00:12:15.077Z,1017
2017-06-13T00:13:14.297Z,1017
2017-06-13T00:14:14.022Z,1017
2017-06-13T00:16:12.636Z,1017
2017-06-13T00:17:11.860Z,1017.1
2017-06-13T00:18:11.084Z,1017
2017-06-13T00:19:10.309Z,1017.1
2017-06-13T00:20:09.537Z,1017.1
2017-06-13T00:21:08.644Z,1017.1
2017-06-13T00:22:08.133Z,1017
2017-06-13T00:23:07.613Z,1017
2017-06-13T00:24:06.837Z,1017
2017-06-13T00:25:05.943Z,1017
2017-06-13T00:26:05.168Z,1017
2017-06-13T00:27:04.466Z,1017
2017-06-13T00:28:03.695Z,1017
2017-06-13T00:29:03.300Z,1017
2017-06-13T00:30:02.529Z,1017
2017-06-13T00:31:01.516Z,1017
2017-06-13T00:32:00.740Z,1017
2017-06-13T00:33:00.226Z,1017
2017-06-13T00:33:59.375Z,1017
2017-06-13T00:34:58.611Z,1017
2017-06-13T00:36:57.300Z,1017
2017-06-13T00:37:56.595Z,1017
2017-06-13T00:38:56.084Z,1017
2017-06-13T00:39:55.381Z,1017
2017-06-13T00:40:54.605Z,1017.1
2017-06-13T00:41:53.826Z,1017.1
2017-06-13T00:42:53.127Z,1017.1
2017-06-13T00:43:52.358Z,1017.1
2017-06-13T00:44:51.588Z,1017.1
2017-06-13T00:45:50.690Z,1017
2017-06-13T00:47:49.577Z,1017.1
2017-06-13T00:48:48.803Z,1017
2017-06-13T00:50:47.369Z,1017
2017-06-13T00:51:46.592Z,1017.1
2017-06-13T00:52:45.893Z,1017.1
2017-06-13T00:53:45.199Z,1017.1
2017-06-13T00:54:44.432Z,1017.1
2017-06-13T00:55:43.686Z,1017.1
2017-06-13T00:56:42.788Z,1017.1
2017-06-13T00:57:41.898Z,1017.1
2017-06-13T00:58:41.504Z,1017.1
2017-06-13T00:59:40.739Z,1017.1
2017-06-13T01:00:39.850Z,1017.1
2017-06-13T01:01:39.078Z,1017.1
2017-06-13T01:02:38.680Z,1017.1
2017-06-13T01:03:37.905Z,1017.1
2017-06-13T01:04:37.137Z,1017.1
2017-06-13T01:05:36.245Z,1017.1
2017-06-13T01:06:35.551Z,1017.1
2017-06-13T01:07:34.781Z,1017.1
2017-06-13T01:08:34.394Z,1017.1
2017-06-13T01:09:04.933Z,1017.1
2017-06-13T01:09:35.476Z,1017.2
2017-06-13T01:10:32.760Z,1017.1
2017-06-13T01:11:31.865Z,1017.2
2017-06-13T01:12:31.476Z,1017.2
2017-06-13T01:13:30.772Z,1017.2
2017-06-13T01:14:30.036Z,1017.1
2017-06-13T01:15:29.261Z,1017.1
2017-06-13T01:16:28.493Z,1017.1
2017-06-13T01:17:27.718Z,1017.1
2017-06-13T01:18:26.942Z,1017.1
2017-06-13T01:19:26.166Z,1017.2
2017-06-13T01:20:25.386Z,1017.1
2017-06-13T01:21:24.611Z,1017.1
2017-06-13T01:22:23.909Z,1017.2
2017-06-13T01:23:23.059Z,1017.1
2017-06-13T01:24:22.786Z,1017.1
2017-06-13T01:25:21.899Z,1017.2
2017-06-13T01:26:21.118Z,1017.1
2017-06-13T01:27:20.421Z,1017.1
2017-06-13T01:28:19.649Z,1017.1
2017-06-13T01:29:18.871Z,1017.1
2017-06-13T01:30:18.246Z,1017.1
2017-06-13T01:31:17.465Z,1017.1
2017-06-13T01:32:16.570Z,1017.1
2017-06-13T01:33:16.180Z,1017.1
2017-06-13T01:34:15.324Z,1017.1
2017-06-13T01:35:14.440Z,1017.1
2017-06-13T01:36:13.664Z,1017.1
2017-06-13T01:37:12.889Z,1017.1
2017-06-13T01:38:12.185Z,1017.1
2017-06-13T01:39:11.426Z,1017.1
2017-06-13T01:40:10.740Z,1017.1
2017-06-13T01:41:09.960Z,1017
2017-06-13T01:42:09.192Z,1017.1
2017-06-13T01:43:08.803Z,1017.1
2017-06-13T01:44:07.914Z,1017
2017-06-13T01:45:07.137Z,1017.1
2017-06-13T01:46:06.366Z,1017.1
2017-06-13T01:47:05.591Z,1017.1
2017-06-13T01:48:04.810Z,1017.1
2017-06-13T01:49:04.501Z,1017.1
2017-06-13T01:50:03.505Z,1017.1
2017-06-13T01:51:02.729Z,1017.1
2017-06-13T01:52:01.952Z,1017.1
2017-06-13T01:53:01.201Z,1017.1
2017-06-13T01:54:00.486Z,1017
2017-06-13T01:54:59.715Z,1017.1
2017-06-13T01:55:58.939Z,1017.1
2017-06-13T01:57:57.831Z,1017.1
2017-06-13T01:58:57.057Z,1017.1
2017-06-13T01:59:56.287Z,1017.2
2017-06-13T02:00:55.508Z,1017.1
2017-06-13T02:01:54.759Z,1017.1
2017-06-13T02:02:53.993Z,1017.1
2017-06-13T02:03:53.221Z,1017.1
2017-06-13T02:04:52.449Z,1017.1
2017-06-13T02:05:51.668Z,1017.1
2017-06-13T02:06:51.167Z,1017.1
2017-06-13T02:07:50.388Z,1017.1
2017-06-13T02:08:49.680Z,1017.1
2017-06-13T02:09:48.784Z,1017.1
2017-06-13T02:10:47.888Z,1017.1
2017-06-13T02:11:47.121Z,1017.1
2017-06-13T02:12:46.416Z,1017.1
2017-06-13T02:13:45.642Z,1017.1
2017-06-13T02:14:45.369Z,1017.2
2017-06-13T02:15:44.592Z,1017.2
2017-06-13T02:16:43.817Z,1017.2
2017-06-13T02:17:43.048Z,1017.2
2017-06-13T02:18:42.287Z,1017.2
2017-06-13T02:19:41.389Z,1017.3
2017-06-13T02:20:40.570Z,1017.3
2017-06-13T02:21:39.678Z,1017.2
2017-06-13T02:22:39.288Z,1017.2
2017-06-13T02:23:38.395Z,1017.2
2017-06-13T02:24:37.623Z,1017.2
2017-06-13T02:25:36.847Z,1017.2
2017-06-13T02:26:36.453Z,1017.2
2017-06-13T02:27:35.324Z,1017.2
2017-06-13T02:28:34.817Z,1017.2
2017-06-13T02:29:34.041Z,1017.2
2017-06-13T02:30:33.273Z,1017.2
2017-06-13T02:31:32.375Z,1017.2
2017-06-13T02:32:31.626Z,1017.2
2017-06-13T02:33:30.939Z,1017.2
2017-06-13T02:34:30.248Z,1017.1
2017-06-13T02:35:29.491Z,1017.1
2017-06-13T02:36:28.596Z,1017.2
2017-06-13T02:38:26.977Z,1017.2
2017-06-13T02:39:26.703Z,1017.2
2017-06-13T02:40:25.939Z,1017.2
2017-06-13T02:41:24.883Z,1017.2
2017-06-13T02:42:23.998Z,1017.2
2017-06-13T02:43:23.621Z,1017.1
2017-06-13T02:44:22.732Z,1017.1
2017-06-13T02:45:21.968Z,1017.2
2017-06-13T02:46:21.194Z,1017.2
2017-06-13T02:47:20.306Z,1017.1
2017-06-13T02:48:19.538Z,1017.2
2017-06-13T02:49:19.160Z,1017.2
2017-06-13T02:50:18.280Z,1017.1
2017-06-13T02:51:17.391Z,1017.1
2017-06-13T02:52:16.618Z,1017.2
2017-06-13T02:53:15.739Z,1017.2
2017-06-13T02:54:15.358Z,1017.2
2017-06-13T02:55:14.482Z,1017.2
2017-06-13T02:56:13.790Z,1017.3
2017-06-13T02:57:12.906Z,1017.3
2017-06-13T02:58:12.292Z,1017.3
2017-06-13T02:59:11.600Z,1017.3
2017-06-13T03:00:10.845Z,1017.4
2017-06-13T03:01:10.074Z,1017.3
2017-06-13T03:02:09.277Z,1017.3
2017-06-13T03:03:08.513Z,1017.3
2017-06-13T03:04:07.632Z,1017.3
2017-06-13T03:05:06.862Z,1017.3
2017-06-13T03:06:06.095Z,1017.3
2017-06-13T03:07:05.321Z,1017.4
2017-06-13T03:08:04.553Z,1017.3
2017-06-13T03:09:03.818Z,1017.3
2017-06-13T03:10:02.937Z,1017.3
2017-06-13T03:11:02.312Z,1017.3
2017-06-13T03:12:01.549Z,1017.3
2017-06-13T03:13:00.788Z,1017.3
2017-06-13T03:14:00.023Z,1017.3
2017-06-13T03:14:59.257Z,1017.4
2017-06-13T03:15:29.479Z,1017.4
2017-06-13T03:16:57.907Z,1017.4
2017-06-13T03:17:57.026Z,1017.4
2017-06-13T03:18:56.134Z,1017.4
2017-06-13T03:19:55.515Z,1017.4
2017-06-13T03:20:54.668Z,1017.4
2017-06-13T03:21:54.036Z,1017.4
2017-06-13T03:22:53.350Z,1017.4
2017-06-13T03:23:52.468Z,1017.4
2017-06-13T03:24:51.701Z,1017.4
2017-06-13T03:25:51.009Z,1017.4
2017-06-13T03:27:49.630Z,1017.4
2017-06-13T03:28:48.863Z,1017.4
2017-06-13T03:29:47.667Z,1017.4
2017-06-13T03:30:46.922Z,1017.4
2017-06-13T03:31:46.162Z,1017.5
2017-06-13T03:32:45.437Z,1017.4
2017-06-13T03:33:44.661Z,1017.4
2017-06-13T03:34:43.967Z,1017.4
2017-06-13T03:35:43.199Z,1017.4
2017-06-13T03:36:42.436Z,1017.4
2017-06-13T03:37:41.679Z,1017.5
2017-06-13T03:38:40.982Z,1017.4
2017-06-13T03:39:40.213Z,1017.4
2017-06-13T03:40:39.449Z,1017.4
2017-06-13T03:41:38.677Z,1017.4
2017-06-13T03:42:37.923Z,1017.4
2017-06-13T03:43:37.155Z,1017.4
2017-06-13T03:44:36.274Z,1017.4
2017-06-13T03:45:36.008Z,1017.4
2017-06-13T03:46:34.773Z,1017.4
2017-06-13T03:47:34.007Z,1017.4
2017-06-13T03:48:33.247Z,1017.4
2017-06-13T03:49:32.625Z,1017.4
2017-06-13T03:50:31.740Z,1017.4
2017-06-13T03:52:30.241Z,1017.4
2017-06-13T03:53:29.472Z,1017.4
2017-06-13T03:54:28.705Z,1017.4
2017-06-13T03:55:28.325Z,1017.4
2017-06-13T03:56:27.564Z,1017.4
2017-06-13T03:57:26.870Z,1017.4
2017-06-13T03:58:26.108Z,1017.4
2017-06-13T03:59:25.221Z,1017.4
2017-06-13T04:00:24.332Z,1017.4
2017-06-13T04:01:23.528Z,1017.5
2017-06-13T04:02:22.769Z,1017.4
2017-06-13T04:03:22.002Z,1017.5
2017-06-13T04:04:21.238Z,1017.5
2017-06-13T04:05:20.470Z,1017.4
2017-06-13T04:06:19.703Z,1017.4
2017-06-13T04:07:19.317Z,1017.4
2017-06-13T04:08:18.545Z,1017.4
2017-06-13T04:09:17.701Z,1017.4
2017-06-13T04:11:16.208Z,1017.4
2017-06-13T04:12:15.441Z,1017.4
2017-06-13T04:13:14.553Z,1017.4
2017-06-13T04:14:13.745Z,1017.4
2017-06-13T04:15:13.055Z,1017.5
2017-06-13T04:16:12.293Z,1017.5
2017-06-13T04:17:11.521Z,1017.5
2017-06-13T04:18:10.757Z,1017.5
2017-06-13T04:19:09.991Z,1017.5
2017-06-13T04:20:09.223Z,1017.4
2017-06-13T04:21:08.338Z,1017.4
2017-06-13T04:22:07.668Z,1017.5
2017-06-13T04:23:07.125Z,1017.5
2017-06-13T04:24:06.124Z,1017.5
2017-06-13T04:25:05.621Z,1017.5
2017-06-13T04:26:04.736Z,1017.5
2017-06-13T04:27:03.974Z,1017.5
2017-06-13T04:28:03.472Z,1017.4
2017-06-13T04:29:02.586Z,1017.5
2017-06-13T04:30:01.821Z,1017.5
2017-06-13T04:31:00.958Z,1017.5
2017-06-13T04:32:00.195Z,1017.5
2017-06-13T04:32:59.810Z,1017.5
2017-06-13T04:33:59.039Z,1017.5
2017-06-13T04:34:57.839Z,1017.5
2017-06-13T04:35:57.080Z,1017.5
2017-06-13T04:36:56.815Z,1017.5
2017-06-13T04:37:55.938Z,1017.5
2017-06-13T04:38:55.054Z,1017.5
2017-06-13T04:39:54.166Z,1017.5
2017-06-13T04:40:53.781Z,1017.5
2017-06-13T04:41:53.044Z,1017.5
2017-06-13T04:42:52.039Z,1017.5
2017-06-13T04:44:50.549Z,1017.5
2017-06-13T04:45:49.788Z,1017.5
2017-06-13T04:46:49.020Z,1017.5
2017-06-13T04:47:48.256Z,1017.4
2017-06-13T04:48:47.489Z,1017.5
2017-06-13T04:49:46.619Z,1017.5
2017-06-13T04:50:45.857Z,1017.4
2017-06-13T04:51:45.597Z,1017.5
2017-06-13T04:52:44.824Z,1017.4
2017-06-13T04:53:44.057Z,1017.4
2017-06-13T04:55:42.179Z,1017.4
2017-06-13T04:56:41.496Z,1017.4
2017-06-13T04:57:40.728Z,1017.4
2017-06-13T04:58:40.352Z,1017.4
2017-06-13T04:59:39.466Z,1017.4
2017-06-13T05:00:38.715Z,1017.5
2017-06-13T05:01:38.032Z,1017.5
2017-06-13T05:02:37.151Z,1017.5
2017-06-13T05:03:36.386Z,1017.4
2017-06-13T05:04:35.840Z,1017.4
2017-06-13T05:05:35.071Z,1017.4
2017-06-13T05:06:34.306Z,1017.4
2017-06-13T05:07:33.607Z,1017.4
2017-06-13T05:08:32.838Z,1017.4
2017-06-13T05:09:31.955Z,1017.4
2017-06-13T05:10:31.182Z,1017.4
2017-06-13T05:11:30.494Z,1017.4
2017-06-13T05:12:01.035Z,1017.4
2017-06-13T05:12:31.693Z,1017.4
2017-06-13T05:13:02.251Z,1017.4
2017-06-13T05:13:32.807Z,1017.4
2017-06-13T05:14:03.507Z,1017.4
2017-06-13T05:15:27.401Z,1017.4
2017-06-13T05:16:26.705Z,1017.4
2017-06-13T05:17:25.825Z,1017.4
2017-06-13T05:19:24.720Z,1017.5
2017-06-13T05:20:23.961Z,1017.5
2017-06-13T05:21:23.192Z,1017.4
2017-06-13T05:22:22.433Z,1017.4
2017-06-13T05:23:21.673Z,1017.5
2017-06-13T05:25:20.185Z,1017.5
2017-06-13T05:26:19.296Z,1017.4
2017-06-13T05:27:18.524Z,1017.4
2017-06-13T05:28:17.759Z,1017.5
2017-06-13T05:29:17.376Z,1017.5
2017-06-13T05:30:16.493Z,1017.5
2017-06-13T05:31:15.609Z,1017.5
2017-06-13T05:32:14.731Z,1017.5
2017-06-13T05:33:13.959Z,1017.5
2017-06-13T05:34:13.699Z,1017.5
2017-06-13T05:35:12.932Z,1017.6
2017-06-13T05:36:12.163Z,1017.5
2017-06-13T05:37:11.390Z,1017.5
2017-06-13T05:38:10.622Z,1017.6
2017-06-13T05:39:09.850Z,1017.6
2017-06-13T05:40:09.103Z,1017.6
2017-06-13T05:41:08.347Z,1017.6
2017-06-13T05:42:07.342Z,1017.6
2017-06-13T05:43:06.967Z,1017.6
2017-06-13T05:44:06.272Z,1017.6
2017-06-13T05:45:05.392Z,1017.6
2017-06-13T05:46:04.508Z,1017.6
2017-06-13T05:47:04.138Z,1017.7
2017-06-13T05:48:03.019Z,1017.6
2017-06-13T05:49:02.638Z,1017.6
2017-06-13T05:50:01.641Z,1017.6
2017-06-13T05:51:01.146Z,1017.6
2017-06-13T05:52:00.456Z,1017.7
2017-06-13T05:52:59.684Z,1017.6
2017-06-13T05:53:58.920Z,1017.6
2017-06-13T05:54:29.462Z,1017.6
2017-06-13T05:54:59.762Z,1017.6
2017-06-13T05:55:57.492Z,1017.6
2017-06-13T05:56:56.723Z,1017.6
2017-06-13T05:57:55.965Z,1017.6
2017-06-13T05:58:55.197Z,1017.6
2017-06-13T05:59:54.502Z,1017.6
2017-06-13T06:00:53.801Z,1017.6
2017-06-13T06:01:52.672Z,1017.6
2017-06-13T06:02:51.987Z,1017.5
2017-06-13T06:03:51.221Z,1017.6
2017-06-13T06:04:50.848Z,1017.6
2017-06-13T06:05:50.149Z,1017.6
2017-06-13T06:06:49.184Z,1017.6
2017-06-13T06:07:48.419Z,1017.5
2017-06-13T06:08:47.651Z,1017.6
2017-06-13T06:09:47.028Z,1017.5
2017-06-13T06:10:46.264Z,1017.5
2017-06-13T06:12:44.899Z,1017.5
2017-06-13T06:13:44.159Z,1017.6
2017-06-13T06:14:43.392Z,1017.5
2017-06-13T06:15:42.629Z,1017.6
2017-06-13T06:16:41.860Z,1017.5
2017-06-13T06:17:41.477Z,1017.6
2017-06-13T06:18:40.603Z,1017.6
2017-06-13T06:19:39.719Z,1017.6
2017-06-13T06:21:38.419Z,1017.6
2017-06-13T06:22:37.655Z,1017.6
2017-06-13T06:23:36.897Z,1017.6
2017-06-13T06:24:36.134Z,1017.6
2017-06-13T06:25:35.549Z,1017.6
2017-06-13T06:26:34.778Z,1017.6
2017-06-13T06:27:34.083Z,1017.6
2017-06-13T06:28:33.202Z,1017.6
2017-06-13T06:29:32.818Z,1017.6
2017-06-13T06:30:32.018Z,1017.6
2017-06-13T06:32:30.645Z,1017.6
2017-06-13T06:33:29.450Z,1017.6
2017-06-13T06:34:29.070Z,1017.6
2017-06-13T06:35:28.451Z,1017.6
2017-06-13T06:36:27.570Z,1017.6
2017-06-13T06:37:26.802Z,1017.6
2017-06-13T06:38:26.038Z,1017.6
2017-06-13T06:39:25.340Z,1017.6
2017-06-13T06:40:24.458Z,1017.7
2017-06-13T06:41:23.690Z,1017.6
2017-06-13T06:42:22.986Z,1017.7
2017-06-13T06:43:22.605Z,1017.6
2017-06-13T06:44:21.833Z,1017.7
2017-06-13T06:45:21.012Z,1017.6
2017-06-13T06:46:20.277Z,1017.7
2017-06-13T06:47:19.518Z,1017.7
2017-06-13T06:48:18.632Z,1017.7
2017-06-13T06:49:18.258Z,1017.7
2017-06-13T06:50:17.376Z,1017.6
2017-06-13T06:51:16.619Z,1017.6
2017-06-13T06:52:15.857Z,1017.7
2017-06-13T06:53:15.124Z,1017.6
2017-06-13T06:54:14.364Z,1017.6
2017-06-13T06:55:13.986Z,1017.6
2017-06-13T06:56:13.250Z,1017.7
2017-06-13T06:57:12.489Z,1017.7
2017-06-13T06:59:10.754Z,1017.6
2017-06-13T07:00:10.423Z,1017.7
2017-06-13T07:01:09.541Z,1017.7
2017-06-13T07:02:08.776Z,1017.7
2017-06-13T07:03:08.040Z,1017.7
2017-06-13T07:04:07.435Z,1017.7
2017-06-13T07:05:06.670Z,1017.7
2017-06-13T07:06:05.915Z,1017.7
2017-06-13T07:07:05.090Z,1017.7
2017-06-13T07:08:04.322Z,1017.7
2017-06-13T07:10:02.911Z,1017.7
2017-06-13T07:11:02.546Z,1017.8
2017-06-13T07:12:01.788Z,1017.8
2017-06-13T07:13:00.789Z,1017.8
2017-06-13T07:14:00.020Z,1017.8
2017-06-13T07:14:59.326Z,1017.8
2017-06-13T07:15:59.061Z,1017.8
2017-06-13T07:16:58.297Z,1017.8
2017-06-13T07:17:57.416Z,1017.8
2017-06-13T07:18:56.623Z,1017.8
2017-06-13T07:19:55.926Z,1017.8
2017-06-13T07:20:55.162Z,1017.8
2017-06-13T07:21:54.785Z,1017.8
2017-06-13T07:22:53.943Z,1017.8
2017-06-13T07:23:53.261Z,1017.8
2017-06-13T07:24:52.505Z,1017.8
2017-06-13T07:25:51.733Z,1017.8
2017-06-13T07:26:50.964Z,1017.8
2017-06-13T07:27:50.201Z,1017.7
2017-06-13T07:28:49.704Z,1017.8
2017-06-13T07:30:48.325Z,1017.8
2017-06-13T07:31:47.563Z,1017.8
2017-06-13T07:32:46.788Z,1017.8
2017-06-13T07:33:46.019Z,1017.8
2017-06-13T07:34:45.510Z,1017.8
2017-06-13T07:35:44.622Z,1017.8
2017-06-13T07:36:43.734Z,1017.8
2017-06-13T07:37:42.979Z,1017.7
2017-06-13T07:38:42.669Z,1017.7
2017-06-13T07:39:41.906Z,1017.7
2017-06-13T07:40:41.223Z,1017.7
2017-06-13T07:41:40.341Z,1017.7
2017-06-13T07:42:39.577Z,1017.7
2017-06-13T07:43:38.809Z,1017.7
2017-06-13T07:44:38.040Z,1017.8
2017-06-13T07:45:37.787Z,1017.7
2017-06-13T07:46:37.018Z,1017.7
2017-06-13T07:47:36.250Z,1017.7
2017-06-13T07:48:35.556Z,1017.7
2017-06-13T07:49:34.796Z,1017.7
2017-06-13T07:50:34.031Z,1017.6
2017-06-13T07:51:33.151Z,1017.7
2017-06-13T07:52:32.885Z,1017.7
2017-06-13T07:53:31.878Z,1017.7
2017-06-13T07:54:31.111Z,1017.7
2017-06-13T07:55:30.347Z,1017.7
2017-06-13T07:56:30.092Z,1017.7
2017-06-13T07:57:29.210Z,1017.7
2017-06-13T07:58:28.337Z,1017.7
2017-06-13T07:59:27.713Z,1017.7
2017-06-13T08:00:26.950Z,1017.7
2017-06-13T08:01:26.174Z,1017.7
2017-06-13T08:02:25.672Z,1017.8
2017-06-13T08:03:24.800Z,1017.8
2017-06-13T08:04:24.109Z,1017.8
2017-06-13T08:05:23.850Z,1017.7
2017-06-13T08:06:23.085Z,1017.8
2017-06-13T08:07:22.322Z,1017.8
2017-06-13T08:08:21.562Z,1017.8
2017-06-13T08:09:20.793Z,1017.8
2017-06-13T08:10:19.908Z,1017.8
2017-06-13T08:11:19.524Z,1017.7
2017-06-13T08:12:18.648Z,1017.8
2017-06-13T08:13:18.150Z,1017.8
2017-06-13T08:14:17.262Z,1017.8
2017-06-13T08:15:16.501Z,1017.8
2017-06-13T08:16:16.240Z,1017.8
2017-06-13T08:17:15.470Z,1017.9
2017-06-13T08:18:14.469Z,1017.8
2017-06-13T08:19:14.083Z,1017.9
2017-06-13T08:20:13.388Z,1017.9
2017-06-13T08:21:12.617Z,1017.9
2017-06-13T08:22:11.856Z,1017.9
2017-06-13T08:23:11.090Z,1017.9
2017-06-13T08:24:10.278Z,1017.9
2017-06-13T08:25:10.017Z,1017.8
2017-06-13T08:26:09.250Z,1017.8
2017-06-13T08:27:08.498Z,1017.8
2017-06-13T08:28:07.729Z,1017.8
2017-06-13T08:28:38.040Z,1017.8
2017-06-13T08:29:08.584Z,1017.9
2017-06-13T08:29:39.286Z,1017.9
2017-06-13T08:30:09.714Z,1017.9
2017-06-13T08:30:40.216Z,1017.9
2017-06-13T08:32:05.123Z,1017.8
2017-06-13T08:33:04.251Z,1017.8
2017-06-13T08:34:03.487Z,1017.9
2017-06-13T08:35:03.105Z,1017.8
2017-06-13T08:36:02.337Z,1017.8
2017-06-13T08:37:01.573Z,1017.8
2017-06-13T08:38:00.806Z,1017.9
2017-06-13T08:39:00.420Z,1017.9
2017-06-13T08:39:59.658Z,1017.8
2017-06-13T08:40:58.890Z,1017.8
2017-06-13T08:41:58.227Z,1017.9
2017-06-13T08:42:57.349Z,1017.9
2017-06-13T08:43:56.583Z,1018
2017-06-13T08:44:56.322Z,1018
2017-06-13T08:45:55.631Z,1017.9
2017-06-13T08:46:54.867Z,1018
2017-06-13T08:47:54.104Z,1018
2017-06-13T08:48:53.492Z,1018
2017-06-13T08:50:51.997Z,1017.9
2017-06-13T08:51:51.196Z,1018
2017-06-13T08:52:50.429Z,1018
2017-06-13T08:53:49.662Z,1018
2017-06-13T08:54:49.395Z,1017.9
2017-06-13T08:55:48.509Z,1018
2017-06-13T08:56:47.680Z,1018
2017-06-13T08:57:46.916Z,1018
2017-06-13T08:58:46.664Z,1017.9
2017-06-13T08:59:45.913Z,1018
2017-06-13T09:00:45.148Z,1018
2017-06-13T09:01:44.268Z,1017.9
2017-06-13T09:02:43.501Z,1017.9
2017-06-13T09:03:43.131Z,1018
2017-06-13T09:04:42.575Z,1017.9
2017-06-13T09:05:41.911Z,1017.9
2017-06-13T09:06:41.143Z,1018
2017-06-13T09:07:40.382Z,1018
2017-06-13T09:08:39.694Z,1018
2017-06-13T09:09:38.929Z,1018
2017-06-13T09:10:38.161Z,1018
2017-06-13T09:11:37.402Z,1018
2017-06-13T09:12:37.138Z,1018
2017-06-13T09:13:36.371Z,1018
2017-06-13T09:14:35.481Z,1018
2017-06-13T09:15:34.664Z,1018
2017-06-13T09:16:33.974Z,1018
2017-06-13T09:17:33.710Z,1018.1
2017-06-13T09:18:32.942Z,1018.1
2017-06-13T09:19:31.937Z,1018.1
2017-06-13T09:20:31.169Z,1018.1
2017-06-13T09:21:30.786Z,1018.1
2017-06-13T09:22:01.091Z,1018.1
2017-06-13T09:22:31.635Z,1018.1
2017-06-13T09:23:02.181Z,1018.1
2017-06-13T09:23:32.651Z,1018.1
2017-06-13T09:24:28.873Z,1018.1
2017-06-13T09:25:28.115Z,1018.1
2017-06-13T09:27:26.620Z,1018.2
2017-06-13T09:28:25.852Z,1018.2
2017-06-13T09:29:25.240Z,1018.2
2017-06-13T09:30:24.503Z,1018.2
2017-06-13T09:31:23.751Z,1018.3
2017-06-13T09:32:22.986Z,1018.2
2017-06-13T09:33:22.219Z,1018.2
2017-06-13T09:34:21.955Z,1018.2
2017-06-13T09:35:20.956Z,1018.2
2017-06-13T09:36:20.148Z,1018.2
2017-06-13T09:37:19.851Z,1018.2
2017-06-13T09:38:18.918Z,1018.2
2017-06-13T09:39:18.143Z,1018.2
2017-06-13T09:40:17.881Z,1018.1
2017-06-13T09:41:16.874Z,1018.1
2017-06-13T09:42:16.076Z,1018.2
2017-06-13T09:43:15.763Z,1018.2
2017-06-13T09:44:14.890Z,1018.1
2017-06-13T09:45:14.006Z,1018.1
2017-06-13T09:46:13.741Z,1018.2
2017-06-13T09:47:12.978Z,1018.1
2017-06-13T09:48:12.211Z,1018.2
2017-06-13T09:49:11.448Z,1018.2
2017-06-13T09:50:10.691Z,1018.2
2017-06-13T09:51:10.313Z,1018.1
2017-06-13T09:52:09.430Z,1018.1
2017-06-13T09:53:08.541Z,1018.1
2017-06-13T09:54:08.043Z,1018.1
2017-06-13T09:55:07.167Z,1018.1
2017-06-13T09:56:06.406Z,1018.2
2017-06-13T09:57:06.049Z,1018.2
2017-06-13T09:58:05.184Z,1018.1
2017-06-13T09:59:04.518Z,1018.1
2017-06-13T10:00:03.827Z,1018.1
2017-06-13T10:01:03.214Z,1018.1
2017-06-13T10:02:02.365Z,1018.1
2017-06-13T10:03:01.979Z,1018.2
2017-06-13T10:04:00.982Z,1018.2
2017-06-13T10:05:00.714Z,1018.2
2017-06-13T10:05:59.834Z,1018.2
2017-06-13T10:06:59.069Z,1018.2
2017-06-13T10:07:58.302Z,1018.2
2017-06-13T10:08:57.921Z,1018.2
2017-06-13T10:09:56.919Z,1018.3
2017-06-13T10:10:56.156Z,1018.2
2017-06-13T10:11:55.659Z,1018.3
2017-06-13T10:12:54.894Z,1018.3
2017-06-13T10:13:54.506Z,1018.2
2017-06-13T10:14:53.617Z,1018.3
2017-06-13T10:15:52.930Z,1018.3
2017-06-13T10:16:52.549Z,1018.3
2017-06-13T10:18:51.171Z,1018.3
2017-06-13T10:19:50.399Z,1018.3
2017-06-13T10:20:49.402Z,1018.3
2017-06-13T10:21:49.025Z,1018.3
2017-06-13T10:22:48.110Z,1018.3
2017-06-13T10:23:47.426Z,1018.3
2017-06-13T10:24:46.681Z,1018.3
2017-06-13T10:25:46.446Z,1018.3
2017-06-13T10:26:45.675Z,1018.3
2017-06-13T10:27:44.907Z,1018.2
2017-06-13T10:28:15.335Z,1018.2
2017-06-13T10:28:45.769Z,1018.3
2017-06-13T10:29:16.308Z,1018.3
2017-06-13T10:29:46.611Z,1018.3
2017-06-13T10:30:17.179Z,1018.3
2017-06-13T10:31:41.965Z,1018.4
2017-06-13T10:32:41.700Z,1018.3
2017-06-13T10:33:40.824Z,1018.3
2017-06-13T10:34:39.949Z,1018.3
2017-06-13T10:35:39.687Z,1018.3
2017-06-13T10:36:38.923Z,1018.3
2017-06-13T10:37:38.193Z,1018.3
2017-06-13T10:38:37.429Z,1018.3
2017-06-13T10:39:36.545Z,1018.3
2017-06-13T10:40:36.163Z,1018.3
2017-06-13T10:41:35.280Z,1018.3
2017-06-13T10:42:34.536Z,1018.3
2017-06-13T10:43:34.151Z,1018.3
2017-06-13T10:44:33.382Z,1018.3
2017-06-13T10:45:32.622Z,1018.3
2017-06-13T10:46:31.854Z,1018.3
2017-06-13T10:47:31.483Z,1018.3
2017-06-13T10:48:30.787Z,1018.3
2017-06-13T10:49:29.906Z,1018.3
2017-06-13T10:50:29.486Z,1018.3
2017-06-13T10:51:28.484Z,1018.2
2017-06-13T10:52:27.986Z,1018.3
2017-06-13T10:53:27.110Z,1018.3
2017-06-13T10:54:26.653Z,1018.3
2017-06-13T10:55:25.887Z,1018.3
2017-06-13T10:56:25.194Z,1018.3
2017-06-13T10:57:24.740Z,1018.3
2017-06-13T10:58:24.049Z,1018.3
2017-06-13T10:59:23.043Z,1018.3
2017-06-13T11:00:22.775Z,1018.3
2017-06-13T11:02:21.393Z,1018.3
2017-06-13T11:03:20.501Z,1018.3
2017-06-13T11:04:19.729Z,1018.3
2017-06-13T11:05:19.473Z,1018.2
2017-06-13T11:06:18.580Z,1018.2
2017-06-13T11:07:17.821Z,1018.2
2017-06-13T11:08:17.054Z,1018.2
2017-06-13T11:09:16.797Z,1018.2
2017-06-13T11:09:47.342Z,1018.2
2017-06-13T11:10:17.894Z,1018.2
2017-06-13T11:10:48.325Z,1018.2
2017-06-13T11:13:14.125Z,1018.2
2017-06-13T11:14:13.237Z,1018.2
2017-06-13T11:15:12.476Z,1018.3
2017-06-13T11:16:12.091Z,1018.3
2017-06-13T11:17:11.320Z,1018.3
2017-06-13T11:18:10.548Z,1018.3
2017-06-13T11:19:09.659Z,1018.3
2017-06-13T11:20:09.483Z,1018.3
2017-06-13T11:21:08.595Z,1018.3
2017-06-13T11:22:08.088Z,1018.3
2017-06-13T11:23:07.090Z,1018.3
2017-06-13T11:24:06.553Z,1018.3
2017-06-13T11:25:05.934Z,1018.2
2017-06-13T11:26:05.175Z,1018.2
2017-06-13T11:27:04.798Z,1018.2
2017-06-13T11:28:04.033Z,1018.3
2017-06-13T11:29:03.153Z,1018.3
2017-06-13T11:30:02.383Z,1018.3
2017-06-13T11:31:01.766Z,1018.3
2017-06-13T11:32:01.506Z,1018.3
2017-06-13T11:33:00.738Z,1018.2
2017-06-13T11:34:00.054Z,1018.3
2017-06-13T11:34:59.292Z,1018.3
2017-06-13T11:35:58.801Z,1018.3
2017-06-13T11:36:57.981Z,1018.4
2017-06-13T11:37:57.212Z,1018.4
2017-06-13T11:38:56.440Z,1018.3
2017-06-13T11:39:56.057Z,1018.3
2017-06-13T11:40:55.288Z,1018.3
2017-06-13T11:41:54.406Z,1018.4
2017-06-13T11:42:54.139Z,1018.3
2017-06-13T11:43:53.375Z,1018.3
2017-06-13T11:45:52.001Z,1018.4
2017-06-13T11:46:51.321Z,1018.4
2017-06-13T11:47:50.440Z,1018.4
2017-06-13T11:48:50.064Z,1018.3
2017-06-13T11:49:49.176Z,1018.4
2017-06-13T11:50:48.411Z,1018.3
2017-06-13T11:51:47.906Z,1018.4
2017-06-13T11:52:47.226Z,1018.3
2017-06-13T11:53:46.466Z,1018.3
2017-06-13T11:54:46.082Z,1018.3
2017-06-13T11:55:45.592Z,1018.3
2017-06-13T11:56:44.587Z,1018.3
2017-06-13T11:57:43.826Z,1018.3
2017-06-13T11:58:43.567Z,1018.4
2017-06-13T11:59:42.804Z,1018.4
2017-06-13T12:00:41.922Z,1018.3
2017-06-13T12:01:41.536Z,1018.3
2017-06-13T12:02:40.775Z,1018.4
2017-06-13T12:03:39.897Z,1018.4
2017-06-13T12:04:39.220Z,1018.4
2017-06-13T12:05:38.726Z,1018.3
2017-06-13T12:06:37.969Z,1018.4
2017-06-13T12:07:37.211Z,1018.3
2017-06-13T12:09:36.327Z,1018.4
2017-06-13T12:10:35.438Z,1018.4
2017-06-13T12:11:34.670Z,1018.4
2017-06-13T12:12:34.410Z,1018.4
2017-06-13T12:13:33.640Z,1018.4
2017-06-13T12:14:32.747Z,1018.4
2017-06-13T12:15:32.053Z,1018.5
2017-06-13T12:16:31.793Z,1018.4
2017-06-13T12:17:31.028Z,1018.3
2017-06-13T12:18:30.265Z,1018.3
2017-06-13T12:19:29.497Z,1018.3
2017-06-13T12:20:29.139Z,1018.3
2017-06-13T12:21:28.133Z,1018.3
2017-06-13T12:22:27.745Z,1018.3
2017-06-13T12:23:26.981Z,1018.3
2017-06-13T12:24:26.213Z,1018.4
2017-06-13T12:25:25.828Z,1018.3
2017-06-13T12:26:25.061Z,1018.3
2017-06-13T12:27:24.297Z,1018.3
2017-06-13T12:28:23.532Z,1018.4
2017-06-13T12:29:23.039Z,1018.4
2017-06-13T12:30:22.543Z,1018.4
2017-06-13T12:31:21.667Z,1018.4
2017-06-13T12:32:21.358Z,1018.4
2017-06-13T12:33:20.591Z,1018.5
2017-06-13T12:34:19.583Z,1018.5
2017-06-13T12:35:18.974Z,1018.5
2017-06-13T12:36:18.479Z,1018.5
2017-06-13T12:37:17.741Z,1018.4
2017-06-13T12:38:17.358Z,1018.4
2017-06-13T12:39:16.594Z,1018.4